createdAt,value
2023-01-21T00:00:59.191Z,-1.50
2023-01-21T00:03:03.478Z,-1.50
2023-01-21T00:05:06.918Z,-1.50
2023-01-21T00:07:09.635Z,-1.50
2023-01-21T00:09:12.519Z,-1.50
2023-01-21T00:11:16.596Z,-1.50
2023-01-21T00:13:19.364Z,-1.50
2023-01-21T00:15:22.132Z,-1.50
2023-01-21T00:17:24.875Z,-1.50
2023-01-21T00:19:29.758Z,-1.50
2023-01-21T00:21:32.451Z,-1.50
2023-01-21T00:23:35.175Z,-1.50
2023-01-21T00:25:37.892Z,-1.50
2023-01-21T00:27:40.745Z,-1.50
2023-01-21T00:29:43.465Z,-1.50
2023-01-21T00:31:46.192Z,-1.80
2023-01-21T00:33:50.178Z,-1.90
2023-01-21T00:36:03.465Z,-1.90
2023-01-21T00:38:06.202Z,-1.80
2023-01-21T00:40:10.268Z,-1.90
2023-01-21T00:42:13.288Z,-1.80
2023-01-21T00:44:16.308Z,-1.80
2023-01-21T00:46:19.309Z,-1.80
2023-01-21T00:48:22.384Z,-1.80
2023-01-21T00:50:25.083Z,-1.90
2023-01-21T00:52:29.173Z,-1.80
2023-01-21T00:54:32.403Z,-1.80
2023-01-21T00:56:35.116Z,-1.70
2023-01-21T00:58:38.129Z,-1.70
2023-01-21T01:00:41.322Z,-1.80
2023-01-21T01:02:44.083Z,-1.80
2023-01-21T01:04:46.755Z,-1.70
2023-01-21T01:06:49.699Z,-1.80
2023-01-21T01:08:57.807Z,-1.80
2023-01-21T01:11:00.763Z,-1.80
2023-01-21T01:13:03.463Z,-1.90
2023-01-21T01:15:07.506Z,-1.90
2023-01-21T01:17:10.326Z,-2.00
2023-01-21T01:19:13.365Z,-2.00
2023-01-21T01:21:17.932Z,-1.90
2023-01-21T01:23:20.818Z,-1.80
2023-01-21T01:25:24.825Z,-1.80
2023-01-21T01:27:27.534Z,-1.80
2023-01-21T01:29:30.259Z,-1.70
2023-01-21T01:31:33.085Z,-1.70
2023-01-21T01:33:36.287Z,-1.70
2023-01-21T01:35:38.993Z,-1.70
2023-01-21T01:37:41.693Z,-1.70
2023-01-21T01:39:44.395Z,-1.60
2023-01-21T01:41:48.440Z,-1.60
2023-01-21T01:43:57.412Z,-1.60
2023-01-21T01:46:00.212Z,-1.60
2023-01-21T01:48:06.357Z,-1.60
2023-01-21T01:50:13.576Z,-1.60
2023-01-21T01:52:18.107Z,-1.70
2023-01-21T01:54:25.171Z,-1.60
2023-01-21T01:56:29.448Z,-1.60
2023-01-21T01:58:33.926Z,-1.60
2023-01-21T02:00:36.627Z,-1.50
2023-01-21T02:02:40.904Z,-1.50
2023-01-21T02:04:47.020Z,-1.50
2023-01-21T02:06:51.672Z,-1.50
2023-01-21T02:08:55.499Z,-1.50
2023-01-21T02:10:58.199Z,-1.50
2023-01-21T02:13:01.433Z,-1.50
2023-01-21T02:15:07.152Z,-1.50
2023-01-21T02:17:23.865Z,-1.30
2023-01-21T02:20:04.290Z,-1.10
2023-01-21T02:22:14.351Z,-1.00
2023-01-21T02:24:56.630Z,-0.80
2023-01-21T02:27:31.535Z,-0.70
2023-01-21T02:29:53.265Z,-0.80
2023-01-21T02:32:31.888Z,-0.70
2023-01-21T02:34:41.515Z,-0.60
2023-01-21T02:36:55.468Z,-0.50
2023-01-21T02:39:07.676Z,-0.40
2023-01-21T02:41:18.142Z,-0.30
2023-01-21T02:43:30.319Z,-0.30
2023-01-21T02:45:39.207Z,-0.20
2023-01-21T02:47:49.354Z,-0.30
2023-01-21T02:50:16.557Z,-0.20
2023-01-21T02:52:20.835Z,-0.20
2023-01-21T02:54:49.634Z,-0.10
2023-01-21T02:56:52.371Z,-0.10
2023-01-21T02:58:59.832Z,0.00
2023-01-21T03:01:13.817Z,0.10
2023-01-21T03:03:41.437Z,0.20
2023-01-21T03:06:01.382Z,0.30
2023-01-21T03:08:12.318Z,0.40
2023-01-21T03:10:23.679Z,0.20
2023-01-21T03:12:33.318Z,0.20
2023-01-21T03:15:00.558Z,0.40
2023-01-21T03:17:08.129Z,0.60
2023-01-21T03:19:14.491Z,0.90
2023-01-21T03:21:22.906Z,1.00
2023-01-21T03:23:29.469Z,1.20
2023-01-21T03:25:35.290Z,1.30
2023-01-21T03:27:42.463Z,1.20
2023-01-21T03:29:47.959Z,1.20
2023-01-21T03:31:56.451Z,1.10
2023-01-21T03:34:03.477Z,1.10
2023-01-21T03:36:12.528Z,1.10
2023-01-21T03:38:21.978Z,1.10
2023-01-21T03:40:27.663Z,1.10
2023-01-21T03:42:30.815Z,0.90
2023-01-21T03:44:34.508Z,1.00
2023-01-21T03:46:41.694Z,1.10
2023-01-21T03:48:48.737Z,1.10
2023-01-21T03:50:57.586Z,1.10
2023-01-21T03:53:00.751Z,1.20
2023-01-21T03:55:05.350Z,1.20
2023-01-21T03:57:08.328Z,1.30
2023-01-21T03:59:11.025Z,1.40
2023-01-21T04:01:13.775Z,1.40
2023-01-21T04:03:16.509Z,1.10
2023-01-21T04:05:19.719Z,0.90
2023-01-21T04:07:22.501Z,1.10
2023-01-21T04:09:25.233Z,1.00
2023-01-21T04:11:29.279Z,0.80
2023-01-21T04:13:32.017Z,0.90
2023-01-21T04:15:34.779Z,1.00
2023-01-21T04:17:37.500Z,0.90
2023-01-21T04:19:40.623Z,0.80
2023-01-21T04:21:43.358Z,0.70
2023-01-21T04:23:46.069Z,0.80
2023-01-21T04:25:48.874Z,0.80
2023-01-21T04:27:52.908Z,0.80
2023-01-21T04:29:55.597Z,0.40
2023-01-21T04:31:58.405Z,0.60
2023-01-21T04:34:01.192Z,0.70
2023-01-21T04:36:04.018Z,0.70
2023-01-21T04:38:07.425Z,0.20
2023-01-21T04:40:11.773Z,0.50
2023-01-21T04:42:14.498Z,0.60
2023-01-21T04:44:18.546Z,0.30
2023-01-21T04:46:21.263Z,0.30
2023-01-21T04:48:24.039Z,-0.10
2023-01-21T04:50:27.029Z,0.10
2023-01-21T04:52:30.376Z,-0.20
2023-01-21T04:54:33.185Z,-0.40
2023-01-21T04:56:35.891Z,-0.10
2023-01-21T04:58:38.656Z,-0.10
2023-01-21T05:00:42.704Z,-0.10
2023-01-21T05:02:45.518Z,-0.40
2023-01-21T05:04:48.248Z,0.00
2023-01-21T05:06:51.169Z,-0.30
2023-01-21T05:08:54.004Z,-0.50
2023-01-21T05:10:56.715Z,-0.40
2023-01-21T05:12:59.927Z,-0.30
2023-01-21T05:15:02.664Z,-0.20
2023-01-21T05:17:06.779Z,-0.20
2023-01-21T05:19:09.630Z,-0.30
2023-01-21T05:21:12.951Z,-0.20
2023-01-21T05:23:15.685Z,-0.10
2023-01-21T05:25:18.520Z,-0.20
2023-01-21T05:27:21.780Z,-0.30
2023-01-21T05:29:24.557Z,-0.30
2023-01-21T05:31:27.424Z,-0.40
2023-01-21T05:33:32.869Z,-0.40
2023-01-21T05:35:36.341Z,-0.50
2023-01-21T05:37:39.084Z,-0.40
2023-01-21T05:39:41.888Z,-0.60
2023-01-21T05:41:44.669Z,-0.60
2023-01-21T05:43:47.393Z,-0.70
2023-01-21T05:45:50.118Z,-0.80
2023-01-21T05:47:52.860Z,-0.60
2023-01-21T05:49:56.889Z,-0.60
2023-01-21T05:51:59.621Z,-0.60
2023-01-21T05:54:02.317Z,-0.60
2023-01-21T05:56:05.647Z,-0.60
2023-01-21T05:58:08.736Z,-0.60
2023-01-21T06:00:12.613Z,-0.70
2023-01-21T06:02:15.347Z,-0.50
2023-01-21T06:04:18.131Z,-0.50
2023-01-21T06:06:22.310Z,-0.50
2023-01-21T06:08:25.089Z,-0.40
2023-01-21T06:10:27.827Z,-0.40
2023-01-21T06:12:30.537Z,-0.50
2023-01-21T06:14:33.230Z,-0.60
2023-01-21T06:16:35.919Z,-0.60
2023-01-21T06:18:38.671Z,-0.60
2023-01-21T06:20:41.612Z,-0.70
2023-01-21T06:22:45.810Z,-0.60
2023-01-21T06:24:48.532Z,-0.60
2023-01-21T06:26:51.265Z,-0.50
2023-01-21T06:28:53.959Z,-0.60
2023-01-21T06:30:56.759Z,-0.80
2023-01-21T06:32:59.917Z,-0.80
2023-01-21T06:35:02.760Z,-1.00
2023-01-21T06:37:05.588Z,-0.90
2023-01-21T06:39:10.558Z,-1.30
2023-01-21T06:41:13.278Z,-1.10
2023-01-21T06:43:16.051Z,-1.50
2023-01-21T06:45:18.893Z,-1.40
2023-01-21T06:47:21.706Z,-1.50
2023-01-21T06:49:24.474Z,-1.60
2023-01-21T06:51:27.377Z,-1.60
2023-01-21T06:53:30.292Z,-1.80
2023-01-21T06:55:34.337Z,-1.70
2023-01-21T06:57:38.458Z,-2.00
2023-01-21T06:59:41.255Z,-2.10
2023-01-21T07:01:43.969Z,-1.90
2023-01-21T07:03:46.737Z,-2.00
2023-01-21T07:05:49.444Z,-2.00
2023-01-21T07:07:55.687Z,-2.00
2023-01-21T07:09:58.542Z,-1.60
2023-01-21T07:12:02.698Z,-1.50
2023-01-21T07:14:05.448Z,-1.40
2023-01-21T07:16:09.228Z,-1.30
2023-01-21T07:18:12.148Z,-1.10
2023-01-21T07:20:15.200Z,-1.00
2023-01-21T07:22:17.926Z,-0.80
2023-01-21T07:24:20.866Z,-0.70
2023-01-21T07:26:24.167Z,-0.50
2023-01-21T07:28:28.284Z,-0.40
2023-01-21T07:30:31.021Z,-0.20
2023-01-21T07:32:33.756Z,-0.10
2023-01-21T07:34:36.486Z,0.00
2023-01-21T07:36:39.216Z,0.00
2023-01-21T07:38:41.944Z,-0.10
2023-01-21T07:40:44.823Z,0.10
2023-01-21T07:42:52.980Z,0.20
2023-01-21T07:44:57.198Z,0.00
2023-01-21T07:46:59.967Z,-0.10
2023-01-21T07:49:02.818Z,0.00
2023-01-21T07:51:05.750Z,0.20
2023-01-21T07:53:08.519Z,0.40
2023-01-21T07:55:12.677Z,0.50
2023-01-21T07:57:15.739Z,0.70
2023-01-21T07:59:21.468Z,0.70
2023-01-21T08:01:30.816Z,0.80
2023-01-21T08:03:33.550Z,0.80
2023-01-21T08:05:36.317Z,0.80
2023-01-21T08:07:39.097Z,0.80
2023-01-21T08:09:41.968Z,0.80
2023-01-21T08:11:45.082Z,0.90
2023-01-21T08:13:49.678Z,0.70
2023-01-21T08:15:52.663Z,0.90
2023-01-21T08:17:56.885Z,0.90
2023-01-21T08:19:59.651Z,1.20
2023-01-21T08:22:02.519Z,1.40
2023-01-21T08:24:06.088Z,1.60
2023-01-21T08:26:09.003Z,1.80
2023-01-21T08:28:11.851Z,1.90
2023-01-21T08:30:15.515Z,2.00
2023-01-21T08:32:18.280Z,2.00
2023-01-21T08:34:22.359Z,2.10
2023-01-21T08:36:25.526Z,2.00
2023-01-21T08:38:28.292Z,2.10
2023-01-21T08:40:31.005Z,2.10
2023-01-21T08:42:33.773Z,2.10
2023-01-21T08:44:36.633Z,2.10
2023-01-21T08:46:39.614Z,2.10
2023-01-21T08:48:42.386Z,2.20
2023-01-21T08:50:47.065Z,2.40
2023-01-21T08:52:53.761Z,2.50
2023-01-21T08:54:56.512Z,2.50
2023-01-21T08:56:59.258Z,2.60
2023-01-21T08:59:02.750Z,2.70
2023-01-21T09:01:09.815Z,2.90
2023-01-21T09:03:13.684Z,3.00
2023-01-21T09:05:16.838Z,3.10
2023-01-21T09:07:21.144Z,3.10
2023-01-21T09:09:24.327Z,2.90
2023-01-21T09:11:29.957Z,2.90
2023-01-21T09:13:35.680Z,3.10
2023-01-21T09:15:39.787Z,3.10
2023-01-21T09:17:42.488Z,3.20
2023-01-21T09:19:45.206Z,3.20
2023-01-21T09:21:47.964Z,3.30
2023-01-21T09:23:52.094Z,3.10
2023-01-21T09:25:56.732Z,3.00
2023-01-21T09:27:59.475Z,3.00
2023-01-21T09:30:02.195Z,3.20
2023-01-21T09:32:06.193Z,3.20
2023-01-21T09:34:11.842Z,2.90
2023-01-21T09:36:16.999Z,3.00
2023-01-21T09:38:19.841Z,3.20
2023-01-21T09:40:24.663Z,3.40
2023-01-21T09:42:31.436Z,3.30
2023-01-21T09:44:40.050Z,2.90
2023-01-21T09:46:46.932Z,3.10
2023-01-21T09:48:51.520Z,2.90
2023-01-21T09:50:55.096Z,2.90
2023-01-21T09:53:06.239Z,2.90
2023-01-21T09:55:17.523Z,2.70
2023-01-21T09:57:56.149Z,2.60
2023-01-21T10:00:24.653Z,2.70
2023-01-21T10:02:35.023Z,2.60
2023-01-21T10:04:46.964Z,2.80
2023-01-21T10:06:52.542Z,3.00
2023-01-21T10:09:28.344Z,3.00
2023-01-21T10:11:47.041Z,2.90
2023-01-21T10:14:09.064Z,3.00
2023-01-21T10:16:20.021Z,3.00
2023-01-21T10:18:30.484Z,3.10
2023-01-21T10:20:38.774Z,3.40
2023-01-21T10:22:47.027Z,3.50
2023-01-21T10:24:53.526Z,3.20
2023-01-21T10:26:56.721Z,3.00
2023-01-21T10:28:59.779Z,2.90
2023-01-21T10:31:08.145Z,2.80
2023-01-21T10:33:18.965Z,2.80
2023-01-21T10:35:31.624Z,2.50
2023-01-21T10:37:43.471Z,2.60
2023-01-21T10:39:54.790Z,2.80
2023-01-21T10:42:20.460Z,3.20
2023-01-21T10:44:28.607Z,3.30
2023-01-21T10:46:40.145Z,3.40
2023-01-21T10:49:05.958Z,3.30
2023-01-21T10:51:20.791Z,3.40
2023-01-21T10:53:29.792Z,3.60
2023-01-21T10:55:44.005Z,3.40
2023-01-21T10:57:56.112Z,3.40
2023-01-21T11:00:01.612Z,3.40
2023-01-21T11:02:16.176Z,3.30
2023-01-21T11:04:23.596Z,3.00
2023-01-21T11:06:27.100Z,2.50
2023-01-21T11:08:29.980Z,3.10
2023-01-21T11:10:33.062Z,3.10
2023-01-21T11:12:36.333Z,2.90
2023-01-21T11:14:39.096Z,2.40
2023-01-21T11:16:47.855Z,3.00
2023-01-21T11:18:50.566Z,3.30
2023-01-21T11:20:59.060Z,3.70
2023-01-21T11:23:04.936Z,3.60
2023-01-21T11:25:25.903Z,3.60
2023-01-21T11:27:36.257Z,3.60
2023-01-21T11:29:43.802Z,3.30
2023-01-21T11:31:48.960Z,3.40
2023-01-21T11:33:52.789Z,3.40
2023-01-21T11:35:58.701Z,3.60
2023-01-21T11:38:02.674Z,3.50
2023-01-21T11:40:11.417Z,4.00
2023-01-21T11:42:16.897Z,4.00
2023-01-21T11:44:21.517Z,4.30
2023-01-21T11:46:29.457Z,3.70
2023-01-21T11:48:32.341Z,4.10
2023-01-21T11:50:37.638Z,4.60
2023-01-21T11:52:41.751Z,5.00
2023-01-21T11:54:44.644Z,5.20
2023-01-21T11:56:55.945Z,5.30
2023-01-21T11:58:58.937Z,5.40
2023-01-21T12:01:03.341Z,5.50
2023-01-21T12:03:07.095Z,5.60
2023-01-21T12:05:16.631Z,5.50
2023-01-21T12:07:21.872Z,5.60
2023-01-21T12:09:27.279Z,5.40
2023-01-21T12:11:32.665Z,5.40
2023-01-21T12:13:41.552Z,5.20
2023-01-21T12:16:03.864Z,4.80
2023-01-21T12:18:19.624Z,4.30
2023-01-21T12:20:32.362Z,4.00
2023-01-21T12:22:47.265Z,4.30
2023-01-21T12:25:21.673Z,3.90
2023-01-21T12:27:32.767Z,3.70
2023-01-21T12:29:50.991Z,3.60
2023-01-21T12:31:59.450Z,3.50
2023-01-21T12:34:11.265Z,3.60
2023-01-21T12:36:20.873Z,3.10
2023-01-21T12:38:30.106Z,3.20
2023-01-21T12:40:38.073Z,3.30
2023-01-21T12:42:45.976Z,3.60
2023-01-21T12:44:53.068Z,3.70
2023-01-21T12:47:02.832Z,3.70
2023-01-21T12:49:15.387Z,3.70
2023-01-21T12:51:24.516Z,3.70
2023-01-21T12:53:37.244Z,3.60
2023-01-21T12:56:03.565Z,3.80
2023-01-21T12:58:10.922Z,3.60
2023-01-21T13:00:22.001Z,3.80
2023-01-21T13:02:30.017Z,3.80
2023-01-21T13:04:45.282Z,3.50
2023-01-21T13:06:54.857Z,3.50
2023-01-21T13:09:04.205Z,3.70
2023-01-21T13:11:18.341Z,3.70
2023-01-21T13:13:26.122Z,3.90
2023-01-21T13:15:31.744Z,3.90
2023-01-21T13:17:39.521Z,4.00
2023-01-21T13:19:42.275Z,3.90
2023-01-21T13:21:51.392Z,4.10
2023-01-21T13:24:01.178Z,3.90
2023-01-21T13:26:13.844Z,3.90
2023-01-21T13:28:21.100Z,3.60
2023-01-21T13:30:31.497Z,3.20
2023-01-21T13:32:42.586Z,3.30
2023-01-21T13:34:57.181Z,3.30
2023-01-21T13:37:10.986Z,3.30
2023-01-21T13:39:22.490Z,3.40
2023-01-21T13:41:40.553Z,3.50
2023-01-21T13:43:54.682Z,3.50
2023-01-21T13:46:09.290Z,3.30
2023-01-21T13:48:43.875Z,2.80
2023-01-21T13:51:04.946Z,3.20
2023-01-21T13:53:27.368Z,3.30
2023-01-21T13:55:39.540Z,3.40
2023-01-21T13:57:56.642Z,3.30
2023-01-21T14:00:04.850Z,3.50
2023-01-21T14:02:12.448Z,3.40
2023-01-21T14:04:20.745Z,3.10
2023-01-21T14:06:29.215Z,3.20
2023-01-21T14:08:37.113Z,3.20
2023-01-21T14:10:42.275Z,3.20
2023-01-21T14:13:05.336Z,3.40
2023-01-21T14:15:26.811Z,3.40
2023-01-21T14:18:05.241Z,3.50
2023-01-21T14:20:44.196Z,3.30
2023-01-21T14:23:07.988Z,3.40
2023-01-21T14:25:21.268Z,3.40
2023-01-21T14:27:31.627Z,3.40
2023-01-21T14:29:41.310Z,2.70
2023-01-21T14:31:48.254Z,3.10
2023-01-21T14:33:58.296Z,3.50
2023-01-21T14:36:06.370Z,3.70
2023-01-21T14:38:22.914Z,3.80
2023-01-21T14:40:31.155Z,3.70
2023-01-21T14:42:45.619Z,3.80
2023-01-21T14:45:03.879Z,3.60
2023-01-21T14:47:14.903Z,3.20
2023-01-21T14:49:40.897Z,2.90
2023-01-21T14:51:48.832Z,3.50
2023-01-21T14:53:53.345Z,3.10
2023-01-21T14:56:09.241Z,2.80
2023-01-21T14:58:22.645Z,3.10
2023-01-21T15:00:31.411Z,3.20
2023-01-21T15:02:36.896Z,3.00
2023-01-21T15:04:40.070Z,3.30
2023-01-21T15:06:44.227Z,3.30
2023-01-21T15:08:50.952Z,3.30
2023-01-21T15:10:59.190Z,3.40
2023-01-21T15:13:05.264Z,3.40
2023-01-21T15:15:28.478Z,3.60
2023-01-21T15:17:45.647Z,3.10
2023-01-21T15:19:58.067Z,3.30
2023-01-21T15:22:23.087Z,3.50
2023-01-21T15:24:28.141Z,3.80
2023-01-21T15:26:33.007Z,3.70
2023-01-21T15:28:43.381Z,3.30
2023-01-21T15:30:59.238Z,3.50
2023-01-21T15:33:02.300Z,3.80
2023-01-21T15:35:14.775Z,4.00
2023-01-21T15:37:21.546Z,4.00
2023-01-21T15:39:31.664Z,3.60
2023-01-21T15:41:44.459Z,3.80
2023-01-21T15:43:55.024Z,3.80
2023-01-21T15:46:20.336Z,3.60
2023-01-21T15:48:49.189Z,3.50
2023-01-21T15:50:57.492Z,3.60
2023-01-21T15:53:14.022Z,3.80
2023-01-21T15:55:32.024Z,3.80
2023-01-21T15:57:51.213Z,3.90
2023-01-21T16:00:05.657Z,4.00
2023-01-21T16:02:22.958Z,4.20
2023-01-21T16:04:35.317Z,3.90
2023-01-21T16:06:48.768Z,3.70
2023-01-21T16:09:03.057Z,3.50
2023-01-21T16:11:24.370Z,3.50
2023-01-21T16:13:38.600Z,3.50
2023-01-21T16:15:53.063Z,3.70
2023-01-21T16:18:05.769Z,3.20
2023-01-21T16:20:11.570Z,3.40
2023-01-21T16:22:19.083Z,3.40
2023-01-21T16:24:26.443Z,3.10
2023-01-21T16:26:32.888Z,3.30
2023-01-21T16:28:43.242Z,2.90
2023-01-21T16:30:54.764Z,3.20
2023-01-21T16:33:13.105Z,3.00
2023-01-21T16:35:16.658Z,2.80
2023-01-21T16:37:21.951Z,2.30
2023-01-21T16:39:25.517Z,2.70
2023-01-21T16:41:28.751Z,2.60
2023-01-21T16:43:32.027Z,2.90
2023-01-21T16:45:34.890Z,3.20
2023-01-21T16:47:38.014Z,3.20
2023-01-21T16:49:43.490Z,3.20
2023-01-21T16:51:51.322Z,3.30
2023-01-21T16:53:54.600Z,3.20
2023-01-21T16:55:58.769Z,3.20
2023-01-21T16:58:01.496Z,3.20
2023-01-21T17:00:24.727Z,3.10
2023-01-21T17:02:31.580Z,2.80
2023-01-21T17:04:34.576Z,2.90
2023-01-21T17:06:39.940Z,3.00
2023-01-21T17:08:46.777Z,2.80
2023-01-21T17:11:00.492Z,3.10
2023-01-21T17:13:06.754Z,3.00
2023-01-21T17:15:19.832Z,3.00
2023-01-21T17:17:24.762Z,3.10
2023-01-21T17:19:32.282Z,2.80
2023-01-21T17:21:40.296Z,3.00
2023-01-21T17:23:48.831Z,2.70
2023-01-21T17:25:57.142Z,2.90
2023-01-21T17:27:59.871Z,2.70
2023-01-21T17:30:26.564Z,2.60
2023-01-21T17:32:33.967Z,2.50
2023-01-21T17:34:39.882Z,2.50
2023-01-21T17:36:45.464Z,2.80
2023-01-21T17:38:48.727Z,2.90
2023-01-21T17:41:01.938Z,2.60
2023-01-21T17:43:18.711Z,2.70
2023-01-21T17:45:30.984Z,2.90
2023-01-21T17:47:45.766Z,3.00
2023-01-21T17:50:00.122Z,3.20
2023-01-21T17:52:04.290Z,2.90
2023-01-21T17:54:09.411Z,3.00
2023-01-21T17:56:12.700Z,3.00
2023-01-21T17:58:50.999Z,3.10
2023-01-21T18:00:53.771Z,2.70
2023-01-21T18:02:56.700Z,2.90
2023-01-21T18:04:59.450Z,2.80
2023-01-21T18:07:04.408Z,2.80
2023-01-21T18:09:09.830Z,2.40
2023-01-21T18:11:15.513Z,2.90
2023-01-21T18:13:20.730Z,2.50
2023-01-21T18:15:23.445Z,2.90
2023-01-21T18:17:27.286Z,3.10
2023-01-21T18:19:32.961Z,3.10
2023-01-21T18:21:35.660Z,2.80
2023-01-21T18:23:39.747Z,2.90
2023-01-21T18:25:43.422Z,2.80
2023-01-21T18:27:47.536Z,2.80
2023-01-21T18:29:51.513Z,3.30
2023-01-21T18:31:54.240Z,3.20
2023-01-21T18:33:57.101Z,3.00
2023-01-21T18:35:59.918Z,3.30
2023-01-21T18:38:02.722Z,3.30
2023-01-21T18:40:13.813Z,3.40
2023-01-21T18:42:18.810Z,3.50
2023-01-21T18:44:21.530Z,3.80
2023-01-21T18:46:24.250Z,3.90
2023-01-21T18:48:29.817Z,3.70
2023-01-21T18:50:32.527Z,3.80
2023-01-21T18:52:35.729Z,3.50
2023-01-21T18:54:38.490Z,3.90
2023-01-21T18:56:43.357Z,3.80
2023-01-21T18:58:46.141Z,3.80
2023-01-21T19:00:49.380Z,3.80
2023-01-21T19:02:53.609Z,4.00
2023-01-21T19:04:56.358Z,4.00
2023-01-21T19:06:59.110Z,3.90
2023-01-21T19:09:01.823Z,4.00
2023-01-21T19:11:04.691Z,4.20
2023-01-21T19:13:09.905Z,4.30
2023-01-21T19:15:15.960Z,3.90
2023-01-21T19:17:26.758Z,3.70
2023-01-21T19:19:29.541Z,3.70
2023-01-21T19:21:32.304Z,3.50
2023-01-21T19:23:35.804Z,3.70
2023-01-21T19:25:38.609Z,3.50
2023-01-21T19:27:45.052Z,3.60
2023-01-21T19:29:49.183Z,3.40
2023-01-21T19:31:52.117Z,3.30
2023-01-21T19:33:55.114Z,3.50
2023-01-21T19:36:03.151Z,3.40
2023-01-21T19:38:11.308Z,2.60
2023-01-21T19:40:20.026Z,2.90
2023-01-21T19:42:23.018Z,3.40
2023-01-21T19:44:25.775Z,3.10
2023-01-21T19:46:29.842Z,3.60
2023-01-21T19:48:32.765Z,3.60
2023-01-21T19:50:35.461Z,3.70
2023-01-21T19:52:38.849Z,3.50
2023-01-21T19:54:41.659Z,3.70
2023-01-21T19:56:44.393Z,3.90
2023-01-21T19:58:48.499Z,3.40
2023-01-21T20:00:53.687Z,3.50
2023-01-21T20:02:57.891Z,3.80
2023-01-21T20:05:00.611Z,3.80
2023-01-21T20:07:03.428Z,3.70
2023-01-21T20:09:06.308Z,3.60
2023-01-21T20:11:09.236Z,3.30
2023-01-21T20:13:13.220Z,3.40
2023-01-21T20:15:17.186Z,3.30
2023-01-21T20:17:20.206Z,3.10
2023-01-21T20:19:24.287Z,3.70
2023-01-21T20:21:26.995Z,3.70
2023-01-21T20:23:32.548Z,3.20
2023-01-21T20:25:37.955Z,3.50
2023-01-21T20:27:40.691Z,3.70
2023-01-21T20:29:55.669Z,3.60
2023-01-21T20:31:58.687Z,3.30
2023-01-21T20:34:01.414Z,3.50
2023-01-21T20:36:07.979Z,3.00
2023-01-21T20:38:14.320Z,3.10
2023-01-21T20:40:20.065Z,3.40
2023-01-21T20:42:22.877Z,3.40
2023-01-21T20:44:25.624Z,3.20
2023-01-21T20:46:30.248Z,3.50
2023-01-21T20:48:36.615Z,3.40
2023-01-21T20:50:39.348Z,3.50
2023-01-21T20:52:43.473Z,3.50
2023-01-21T20:54:46.277Z,3.50
2023-01-21T20:56:48.998Z,3.60
2023-01-21T20:58:51.780Z,3.10
2023-01-21T21:00:54.894Z,3.40
2023-01-21T21:02:57.686Z,3.30
2023-01-21T21:05:00.420Z,3.70
2023-01-21T21:07:03.128Z,3.30
2023-01-21T21:09:07.186Z,3.70
2023-01-21T21:11:10.754Z,3.60
2023-01-21T21:13:14.241Z,3.50
2023-01-21T21:15:19.450Z,3.90
2023-01-21T21:17:23.071Z,3.90
2023-01-21T21:19:25.791Z,3.80
2023-01-21T21:21:28.620Z,3.70
2023-01-21T21:23:31.334Z,3.90
2023-01-21T21:25:40.680Z,3.60
2023-01-21T21:27:44.050Z,3.40
2023-01-21T21:29:46.837Z,3.40
2023-01-21T21:31:49.620Z,3.10
2023-01-21T21:33:52.484Z,3.60
2023-01-21T21:35:55.866Z,3.60
2023-01-21T21:38:01.004Z,3.40
2023-01-21T21:40:03.900Z,3.40
2023-01-21T21:42:26.848Z,3.60
2023-01-21T21:44:29.548Z,3.10
2023-01-21T21:46:49.703Z,3.60
2023-01-21T21:48:53.370Z,3.40
2023-01-21T21:50:57.046Z,3.60
2023-01-21T21:52:59.829Z,3.70
2023-01-21T21:55:02.611Z,3.60
2023-01-21T21:57:05.505Z,3.70
2023-01-21T21:59:09.848Z,3.80
2023-01-21T22:01:14.512Z,3.90
2023-01-21T22:03:17.310Z,3.80
2023-01-21T22:05:20.349Z,3.80
2023-01-21T22:07:23.174Z,3.90
2023-01-21T22:09:25.911Z,3.80
2023-01-21T22:11:29.693Z,3.80
2023-01-21T22:13:34.796Z,3.90
2023-01-21T22:15:38.857Z,3.80
2023-01-21T22:17:41.673Z,3.70
2023-01-21T22:19:44.352Z,4.00
2023-01-21T22:21:47.112Z,3.90
2023-01-21T22:23:50.288Z,3.90
2023-01-21T22:25:53.771Z,3.90
2023-01-21T22:27:56.784Z,4.10
2023-01-21T22:30:01.359Z,4.10
2023-01-21T22:32:06.173Z,4.20
2023-01-21T22:34:08.893Z,4.40
2023-01-21T22:36:14.226Z,3.80
2023-01-21T22:38:16.980Z,4.20
2023-01-21T22:40:19.954Z,4.30
2023-01-21T22:42:22.756Z,4.50
2023-01-21T22:44:25.504Z,4.40
2023-01-21T22:46:30.363Z,4.40
2023-01-21T22:48:34.867Z,4.50
2023-01-21T22:50:41.558Z,4.40
2023-01-21T22:52:44.466Z,4.40
2023-01-21T22:54:49.460Z,4.30
2023-01-21T22:56:53.266Z,4.50
2023-01-21T22:58:56.180Z,4.60
2023-01-21T23:00:59.844Z,4.50
2023-01-21T23:03:02.576Z,4.40
2023-01-21T23:05:07.252Z,4.20
2023-01-21T23:07:09.994Z,4.20
2023-01-21T23:09:14.958Z,3.90
2023-01-21T23:11:19.096Z,4.00
2023-01-21T23:13:21.868Z,3.70
2023-01-21T23:15:25.200Z,3.70
2023-01-21T23:17:27.900Z,4.00
2023-01-21T23:19:30.590Z,3.80
2023-01-21T23:21:35.837Z,4.10
2023-01-21T23:23:38.953Z,4.30
2023-01-21T23:25:42.154Z,4.20
2023-01-21T23:27:46.116Z,4.20
2023-01-21T23:29:48.903Z,4.30
2023-01-21T23:31:52.035Z,4.50
2023-01-21T23:33:57.160Z,4.40
2023-01-21T23:36:00.819Z,4.60
2023-01-21T23:38:04.997Z,4.30
2023-01-21T23:40:09.186Z,4.50
2023-01-21T23:42:11.972Z,4.00
2023-01-21T23:44:14.811Z,4.00
2023-01-21T23:46:19.565Z,4.10
2023-01-21T23:48:22.801Z,4.50
2023-01-21T23:50:25.979Z,4.70
2023-01-21T23:52:28.707Z,4.30
2023-01-21T23:54:32.843Z,4.50
2023-01-21T23:56:35.587Z,4.60
2023-01-21T23:58:38.348Z,4.70
